sensor_id;sensor_type;location;lat;lon;timestamp;P1;durP1;ratioP1;P2;durP2;ratioP2
5195;SDS011;2617;51.006;12.436;2023-07-29T00:03:25;2.23;;;2.03;;
5195;SDS011;2617;51.006;12.436;2023-07-29T00:08:27;5.67;;;2.20;;
5195;SDS011;2617;51.006;12.436;2023-07-29T00:13:30;2.90;;;2.00;;
5195;SDS011;2617;51.006;12.436;2023-07-29T00:18:32;7.60;;;2.10;;
5195;SDS011;2617;51.006;12.436;2023-07-29T00:23:35;1.77;;;1.67;;
5195;SDS011;2617;51.006;12.436;2023-07-29T00:28:37;1.67;;;1.40;;
5195;SDS011;2617;51.006;12.436;2023-07-29T00:33:40;2.27;;;1.47;;
5195;SDS011;2617;51.006;12.436;2023-07-29T00:38:42;1.60;;;1.50;;
5195;SDS011;2617;51.006;12.436;2023-07-29T00:43:44;1.90;;;1.80;;
5195;SDS011;2617;51.006;12.436;2023-07-29T00:48:47;1.70;;;1.60;;
5195;SDS011;2617;51.006;12.436;2023-07-29T00:53:50;1.70;;;1.60;;
5195;SDS011;2617;51.006;12.436;2023-07-29T00:58:53;1.58;;;1.45;;
5195;SDS011;2617;51.006;12.436;2023-07-29T01:03:56;2.37;;;1.70;;
5195;SDS011;2617;51.006;12.436;2023-07-29T01:09:02;1.60;;;1.50;;
5195;SDS011;2617;51.006;12.436;2023-07-29T01:19:40;3.20;;;1.50;;
5195;SDS011;2617;51.006;12.436;2023-07-29T01:24:45;1.33;;;1.23;;
5195;SDS011;2617;51.006;12.436;2023-07-29T01:29:47;1.33;;;1.23;;
5195;SDS011;2617;51.006;12.436;2023-07-29T01:34:53;1.60;;;1.50;;
5195;SDS011;2617;51.006;12.436;2023-07-29T01:39:54;1.47;;;1.37;;
5195;SDS011;2617;51.006;12.436;2023-07-29T01:44:55;1.40;;;1.30;;
5195;SDS011;2617;51.006;12.436;2023-07-29T01:49:58;1.10;;;1.10;;
5195;SDS011;2617;51.006;12.436;2023-07-29T01:55:01;1.40;;;1.30;;
5195;SDS011;2617;51.006;12.436;2023-07-29T02:00:04;1.50;;;1.40;;
5195;SDS011;2617;51.006;12.436;2023-07-29T02:05:09;2.50;;;1.30;;
5195;SDS011;2617;51.006;12.436;2023-07-29T02:10:12;1.50;;;1.40;;
5195;SDS011;2617;51.006;12.436;2023-07-29T02:15:14;1.40;;;1.30;;
5195;SDS011;2617;51.006;12.436;2023-07-29T02:20:17;1.43;;;1.27;;
5195;SDS011;2617;51.006;12.436;2023-07-29T02:25:19;1.70;;;1.57;;
5195;SDS011;2617;51.006;12.436;2023-07-29T02:30:22;2.45;;;1.30;;
5195;SDS011;2617;51.006;12.436;2023-07-29T02:35:24;1.27;;;1.17;;
5195;SDS011;2617;51.006;12.436;2023-07-29T02:40:27;1.10;;;1.10;;
5195;SDS011;2617;51.006;12.436;2023-07-29T02:45:29;1.30;;;1.20;;
5195;SDS011;2617;51.006;12.436;2023-07-29T02:50:31;2.40;;;1.30;;
5195;SDS011;2617;51.006;12.436;2023-07-29T02:55:35;1.20;;;1.10;;
5195;SDS011;2617;51.006;12.436;2023-07-29T03:00:37;1.50;;;1.40;;
5195;SDS011;2617;51.006;12.436;2023-07-29T03:05:39;1.10;;;1.10;;
5195;SDS011;2617;51.006;12.436;2023-07-29T03:10:42;1.50;;;1.40;;
5195;SDS011;2617;51.006;12.436;2023-07-29T03:15:45;1.20;;;1.20;;
5195;SDS011;2617;51.006;12.436;2023-07-29T03:20:48;1.40;;;1.40;;
5195;SDS011;2617;51.006;12.436;2023-07-29T03:25:50;2.07;;;1.13;;
5195;SDS011;2617;51.006;12.436;2023-07-29T03:30:55;1.53;;;1.43;;
5195;SDS011;2617;51.006;12.436;2023-07-29T03:35:57;1.35;;;1.27;;
5195;SDS011;2617;51.006;12.436;2023-07-29T03:40:59;1.30;;;1.23;;
5195;SDS011;2617;51.006;12.436;2023-07-29T03:46:02;1.30;;;1.20;;
5195;SDS011;2617;51.006;12.436;2023-07-29T03:51:04;1.30;;;1.20;;
5195;SDS011;2617;51.006;12.436;2023-07-29T03:56:07;3.50;;;1.50;;
5195;SDS011;2617;51.006;12.436;2023-07-29T04:01:10;1.70;;;1.60;;
5195;SDS011;2617;51.006;12.436;2023-07-29T04:06:12;1.33;;;1.20;;
5195;SDS011;2617;51.006;12.436;2023-07-29T04:11:16;1.60;;;1.50;;
5195;SDS011;2617;51.006;12.436;2023-07-29T04:16:18;1.60;;;1.50;;
5195;SDS011;2617;51.006;12.436;2023-07-29T04:21:20;1.50;;;1.40;;
5195;SDS011;2617;51.006;12.436;2023-07-29T04:26:23;1.70;;;1.60;;
5195;SDS011;2617;51.006;12.436;2023-07-29T04:31:25;8.63;;;1.57;;
5195;SDS011;2617;51.006;12.436;2023-07-29T04:36:28;1.53;;;1.43;;
5195;SDS011;2617;51.006;12.436;2023-07-29T04:41:30;1.80;;;1.70;;
5195;SDS011;2617;51.006;12.436;2023-07-29T04:46:33;1.63;;;1.53;;
5195;SDS011;2617;51.006;12.436;2023-07-29T04:51:35;1.30;;;1.30;;
5195;SDS011;2617;51.006;12.436;2023-07-29T04:56:37;1.60;;;1.50;;
5195;SDS011;2617;51.006;12.436;2023-07-29T05:01:40;1.40;;;1.10;;
5195;SDS011;2617;51.006;12.436;2023-07-29T05:06:43;2.62;;;1.30;;
5195;SDS011;2617;51.006;12.436;2023-07-29T05:11:45;1.20;;;1.10;;
5195;SDS011;2617;51.006;12.436;2023-07-29T05:16:48;1.18;;;1.08;;
5195;SDS011;2617;51.006;12.436;2023-07-29T05:21:50;1.43;;;1.33;;
5195;SDS011;2617;51.006;12.436;2023-07-29T05:26:53;1.30;;;1.23;;
5195;SDS011;2617;51.006;12.436;2023-07-29T05:31:55;1.40;;;1.25;;
5195;SDS011;2617;51.006;12.436;2023-07-29T05:36:57;1.40;;;1.30;;
5195;SDS011;2617;51.006;12.436;2023-07-29T05:42:00;2.33;;;1.67;;
5195;SDS011;2617;51.006;12.436;2023-07-29T05:47:03;1.30;;;1.30;;
5195;SDS011;2617;51.006;12.436;2023-07-29T05:52:06;1.30;;;1.20;;
5195;SDS011;2617;51.006;12.436;2023-07-29T05:57:09;1.70;;;1.60;;
5195;SDS011;2617;51.006;12.436;2023-07-29T06:02:12;1.07;;;1.07;;
5195;SDS011;2617;51.006;12.436;2023-07-29T06:07:15;1.35;;;1.30;;
5195;SDS011;2617;51.006;12.436;2023-07-29T06:12:17;1.90;;;1.20;;
5195;SDS011;2617;51.006;12.436;2023-07-29T06:17:19;1.50;;;1.20;;
5195;SDS011;2617;51.006;12.436;2023-07-29T06:22:22;1.60;;;1.50;;
5195;SDS011;2617;51.006;12.436;2023-07-29T06:27:24;1.47;;;1.30;;
5195;SDS011;2617;51.006;12.436;2023-07-29T06:32:27;1.23;;;1.23;;
5195;SDS011;2617;51.006;12.436;2023-07-29T06:37:29;1.10;;;1.10;;
5195;SDS011;2617;51.006;12.436;2023-07-29T06:42:32;1.37;;;1.27;;
5195;SDS011;2617;51.006;12.436;2023-07-29T06:47:34;1.13;;;1.10;;
5195;SDS011;2617;51.006;12.436;2023-07-29T06:52:36;1.37;;;1.30;;
5195;SDS011;2617;51.006;12.436;2023-07-29T06:57:39;1.87;;;1.30;;
5195;SDS011;2617;51.006;12.436;2023-07-29T07:02:41;1.20;;;1.20;;
5195;SDS011;2617;51.006;12.436;2023-07-29T07:07:44;1.02;;;1.02;;
5195;SDS011;2617;51.006;12.436;2023-07-29T07:12:47;3.90;;;1.13;;
5195;SDS011;2617;51.006;12.436;2023-07-29T07:17:50;0.95;;;0.95;;
5195;SDS011;2617;51.006;12.436;2023-07-29T07:22:52;1.10;;;1.03;;
5195;SDS011;2617;51.006;12.436;2023-07-29T07:27:54;1.30;;;1.20;;
5195;SDS011;2617;51.006;12.436;2023-07-29T07:32:57;1.00;;;1.00;;
5195;SDS011;2617;51.006;12.436;2023-07-29T07:37:59;1.25;;;1.25;;
5195;SDS011;2617;51.006;12.436;2023-07-29T07:43:01;6.05;;;1.10;;
5195;SDS011;2617;51.006;12.436;2023-07-29T07:48:04;0.97;;;0.97;;
5195;SDS011;2617;51.006;12.436;2023-07-29T07:53:06;1.23;;;1.13;;
5195;SDS011;2617;51.006;12.436;2023-07-29T07:58:09;1.20;;;1.10;;
5195;SDS011;2617;51.006;12.436;2023-07-29T08:03:11;1.00;;;1.00;;
5195;SDS011;2617;51.006;12.436;2023-07-29T08:08:15;1.45;;;1.35;;
5195;SDS011;2617;51.006;12.436;2023-07-29T08:13:17;2.30;;;1.10;;
5195;SDS011;2617;51.006;12.436;2023-07-29T08:18:19;1.45;;;1.00;;
5195;SDS011;2617;51.006;12.436;2023-07-29T08:23:23;1.85;;;1.00;;
5195;SDS011;2617;51.006;12.436;2023-07-29T08:28:27;0.97;;;0.97;;
5195;SDS011;2617;51.006;12.436;2023-07-29T08:33:31;1.00;;;1.00;;
5195;SDS011;2617;51.006;12.436;2023-07-29T08:38:34;0.70;;;0.70;;
5195;SDS011;2617;51.006;12.436;2023-07-29T08:43:38;1.00;;;0.90;;
5195;SDS011;2617;51.006;12.436;2023-07-29T08:48:40;1.03;;;0.97;;
5195;SDS011;2617;51.006;12.436;2023-07-29T08:53:42;0.80;;;0.80;;
5195;SDS011;2617;51.006;12.436;2023-07-29T08:58:46;1.52;;;0.82;;
5195;SDS011;2617;51.006;12.436;2023-07-29T09:03:48;0.90;;;0.77;;
5195;SDS011;2617;51.006;12.436;2023-07-29T09:08:51;1.05;;;0.98;;
5195;SDS011;2617;51.006;12.436;2023-07-29T09:13:53;2.37;;;0.85;;
5195;SDS011;2617;51.006;12.436;2023-07-29T09:18:56;0.90;;;0.90;;
5195;SDS011;2617;51.006;12.436;2023-07-29T09:24:02;1.00;;;0.90;;
5195;SDS011;2617;51.006;12.436;2023-07-29T09:29:01;1.07;;;0.80;;
5195;SDS011;2617;51.006;12.436;2023-07-29T09:34:03;0.95;;;0.95;;
5195;SDS011;2617;51.006;12.436;2023-07-29T09:39:10;0.90;;;0.90;;
5195;SDS011;2617;51.006;12.436;2023-07-29T09:44:10;0.97;;;0.97;;
5195;SDS011;2617;51.006;12.436;2023-07-29T09:49:11;1.43;;;1.07;;
5195;SDS011;2617;51.006;12.436;2023-07-29T09:54:13;0.90;;;0.90;;
5195;SDS011;2617;51.006;12.436;2023-07-29T09:59:18;1.45;;;0.80;;
5195;SDS011;2617;51.006;12.436;2023-07-29T10:04:18;0.93;;;0.83;;
5195;SDS011;2617;51.006;12.436;2023-07-29T10:09:21;0.93;;;0.93;;
5195;SDS011;2617;51.006;12.436;2023-07-29T10:14:23;0.60;;;0.60;;
5195;SDS011;2617;51.006;12.436;2023-07-29T10:19:26;1.62;;;0.75;;
5195;SDS011;2617;51.006;12.436;2023-07-29T10:24:29;0.65;;;0.60;;
5195;SDS011;2617;51.006;12.436;2023-07-29T10:29:31;1.37;;;1.00;;
5195;SDS011;2617;51.006;12.436;2023-07-29T10:34:34;3.15;;;1.20;;
5195;SDS011;2617;51.006;12.436;2023-07-29T10:39:39;0.90;;;0.90;;
5195;SDS011;2617;51.006;12.436;2023-07-29T10:44:49;1.13;;;1.07;;
5195;SDS011;2617;51.006;12.436;2023-07-29T10:49:54;2.00;;;0.83;;
5195;SDS011;2617;51.006;12.436;2023-07-29T10:54:56;1.00;;;0.93;;
5195;SDS011;2617;51.006;12.436;2023-07-29T10:59:58;1.00;;;1.00;;
5195;SDS011;2617;51.006;12.436;2023-07-29T11:05:06;1.43;;;1.33;;
5195;SDS011;2617;51.006;12.436;2023-07-29T11:10:09;2.20;;;1.23;;
5195;SDS011;2617;51.006;12.436;2023-07-29T11:15:13;1.20;;;1.10;;
5195;SDS011;2617;51.006;12.436;2023-07-29T11:20:19;6.27;;;1.50;;
5195;SDS011;2617;51.006;12.436;2023-07-29T11:25:21;1.30;;;1.20;;
5195;SDS011;2617;51.006;12.436;2023-07-29T11:30:23;2.00;;;1.20;;
5195;SDS011;2617;51.006;12.436;2023-07-29T11:35:26;3.75;;;1.52;;
5195;SDS011;2617;51.006;12.436;2023-07-29T11:40:29;1.57;;;1.00;;
5195;SDS011;2617;51.006;12.436;2023-07-29T11:45:31;1.20;;;1.10;;
5195;SDS011;2617;51.006;12.436;2023-07-29T11:50:34;1.30;;;1.08;;
5195;SDS011;2617;51.006;12.436;2023-07-29T11:55:36;1.57;;;1.47;;
5195;SDS011;2617;51.006;12.436;2023-07-29T12:00:39;3.27;;;1.63;;
5195;SDS011;2617;51.006;12.436;2023-07-29T12:05:41;2.10;;;1.60;;
5195;SDS011;2617;51.006;12.436;2023-07-29T12:10:45;1.60;;;1.50;;
5195;SDS011;2617;51.006;12.436;2023-07-29T12:15:47;1.57;;;1.47;;
5195;SDS011;2617;51.006;12.436;2023-07-29T12:20:50;1.10;;;1.10;;
5195;SDS011;2617;51.006;12.436;2023-07-29T12:25:56;1.78;;;1.30;;
5195;SDS011;2617;51.006;12.436;2023-07-29T12:30:58;1.20;;;1.10;;
5195;SDS011;2617;51.006;12.436;2023-07-29T12:36:02;1.62;;;1.52;;
5195;SDS011;2617;51.006;12.436;2023-07-29T12:41:04;1.30;;;1.23;;
5195;SDS011;2617;51.006;12.436;2023-07-29T12:46:06;1.40;;;1.30;;
5195;SDS011;2617;51.006;12.436;2023-07-29T12:51:09;1.23;;;1.17;;
5195;SDS011;2617;51.006;12.436;2023-07-29T12:56:11;1.20;;;1.20;;
5195;SDS011;2617;51.006;12.436;2023-07-29T13:01:14;2.53;;;1.30;;
5195;SDS011;2617;51.006;12.436;2023-07-29T13:06:19;1.30;;;1.20;;
5195;SDS011;2617;51.006;12.436;2023-07-29T13:11:21;1.43;;;1.33;;
5195;SDS011;2617;51.006;12.436;2023-07-29T13:16:24;2.53;;;1.13;;
5195;SDS011;2617;51.006;12.436;2023-07-29T13:21:26;1.50;;;1.40;;
5195;SDS011;2617;51.006;12.436;2023-07-29T13:26:28;1.50;;;1.40;;
5195;SDS011;2617;51.006;12.436;2023-07-29T13:31:31;1.33;;;1.23;;
5195;SDS011;2617;51.006;12.436;2023-07-29T13:36:34;1.20;;;1.10;;
5195;SDS011;2617;51.006;12.436;2023-07-29T13:41:36;1.30;;;1.20;;
5195;SDS011;2617;51.006;12.436;2023-07-29T13:46:39;1.10;;;1.00;;
5195;SDS011;2617;51.006;12.436;2023-07-29T13:51:42;0.90;;;0.90;;
5195;SDS011;2617;51.006;12.436;2023-07-29T13:56:44;0.77;;;0.77;;
5195;SDS011;2617;51.006;12.436;2023-07-29T14:01:47;1.10;;;1.00;;
5195;SDS011;2617;51.006;12.436;2023-07-29T14:06:50;1.50;;;1.10;;
5195;SDS011;2617;51.006;12.436;2023-07-29T14:11:53;1.87;;;1.27;;
5195;SDS011;2617;51.006;12.436;2023-07-29T14:16:55;2.12;;;1.30;;
5195;SDS011;2617;51.006;12.436;2023-07-29T14:21:58;1.23;;;1.12;;
5195;SDS011;2617;51.006;12.436;2023-07-29T14:27:00;2.75;;;1.40;;
5195;SDS011;2617;51.006;12.436;2023-07-29T14:32:03;2.57;;;1.13;;
5195;SDS011;2617;51.006;12.436;2023-07-29T14:37:05;1.33;;;1.23;;
5195;SDS011;2617;51.006;12.436;2023-07-29T14:42:08;2.40;;;1.50;;
5195;SDS011;2617;51.006;12.436;2023-07-29T14:47:10;1.07;;;1.03;;
5195;SDS011;2617;51.006;12.436;2023-07-29T14:52:13;1.00;;;1.00;;
5195;SDS011;2617;51.006;12.436;2023-07-29T14:57:16;1.70;;;1.60;;
5195;SDS011;2617;51.006;12.436;2023-07-29T15:02:18;1.30;;;1.20;;
5195;SDS011;2617;51.006;12.436;2023-07-29T15:07:20;1.03;;;1.03;;
5195;SDS011;2617;51.006;12.436;2023-07-29T15:12:23;1.10;;;1.00;;
5195;SDS011;2617;51.006;12.436;2023-07-29T15:17:25;3.00;;;1.60;;
5195;SDS011;2617;51.006;12.436;2023-07-29T15:22:28;4.30;;;1.73;;
5195;SDS011;2617;51.006;12.436;2023-07-29T15:27:31;3.27;;;1.80;;
5195;SDS011;2617;51.006;12.436;2023-07-29T15:32:33;3.87;;;1.77;;
5195;SDS011;2617;51.006;12.436;2023-07-29T15:37:36;5.53;;;2.17;;
5195;SDS011;2617;51.006;12.436;2023-07-29T15:42:38;2.80;;;1.97;;
5195;SDS011;2617;51.006;12.436;2023-07-29T15:47:41;3.03;;;2.03;;
5195;SDS011;2617;51.006;12.436;2023-07-29T15:52:43;2.90;;;2.57;;
5195;SDS011;2617;51.006;12.436;2023-07-29T15:57:46;3.77;;;2.40;;
5195;SDS011;2617;51.006;12.436;2023-07-29T16:02:48;4.90;;;3.07;;
5195;SDS011;2617;51.006;12.436;2023-07-29T16:07:51;2.50;;;2.10;;
5195;SDS011;2617;51.006;12.436;2023-07-29T16:12:54;2.20;;;2.00;;
5195;SDS011;2617;51.006;12.436;2023-07-29T16:17:56;2.10;;;1.92;;
5195;SDS011;2617;51.006;12.436;2023-07-29T16:22:59;2.37;;;2.00;;
5195;SDS011;2617;51.006;12.436;2023-07-29T16:28:02;2.03;;;1.30;;
5195;SDS011;2617;51.006;12.436;2023-07-29T16:33:05;1.90;;;1.63;;
5195;SDS011;2617;51.006;12.436;2023-07-29T16:38:07;1.83;;;1.33;;
5195;SDS011;2617;51.006;12.436;2023-07-29T16:43:10;3.13;;;1.43;;
5195;SDS011;2617;51.006;12.436;2023-07-29T16:48:12;6.93;;;2.30;;
5195;SDS011;2617;51.006;12.436;2023-07-29T16:53:15;1.63;;;1.53;;
5195;SDS011;2617;51.006;12.436;2023-07-29T16:58:18;2.60;;;1.60;;
5195;SDS011;2617;51.006;12.436;2023-07-29T17:03:21;3.55;;;1.50;;
5195;SDS011;2617;51.006;12.436;2023-07-29T17:08:24;2.30;;;1.57;;
5195;SDS011;2617;51.006;12.436;2023-07-29T17:13:26;3.42;;;1.50;;
5195;SDS011;2617;51.006;12.436;2023-07-29T17:18:30;1.57;;;1.47;;
5195;SDS011;2617;51.006;12.436;2023-07-29T17:23:32;3.00;;;1.25;;
5195;SDS011;2617;51.006;12.436;2023-07-29T17:28:34;2.13;;;1.50;;
5195;SDS011;2617;51.006;12.436;2023-07-29T17:33:37;2.00;;;1.60;;
5195;SDS011;2617;51.006;12.436;2023-07-29T17:38:40;6.53;;;1.60;;
5195;SDS011;2617;51.006;12.436;2023-07-29T17:43:42;1.73;;;1.57;;
5195;SDS011;2617;51.006;12.436;2023-07-29T17:48:46;1.30;;;1.10;;
5195;SDS011;2617;51.006;12.436;2023-07-29T17:53:48;3.70;;;1.83;;
5195;SDS011;2617;51.006;12.436;2023-07-29T17:58:52;1.25;;;1.15;;
5195;SDS011;2617;51.006;12.436;2023-07-29T18:03:54;1.37;;;1.27;;
5195;SDS011;2617;51.006;12.436;2023-07-29T18:08:56;1.90;;;1.50;;
5195;SDS011;2617;51.006;12.436;2023-07-29T18:13:59;1.27;;;1.10;;
5195;SDS011;2617;51.006;12.436;2023-07-29T18:19:02;1.20;;;1.10;;
5195;SDS011;2617;51.006;12.436;2023-07-29T18:24:04;1.57;;;1.30;;
5195;SDS011;2617;51.006;12.436;2023-07-29T18:29:08;1.87;;;1.17;;
5195;SDS011;2617;51.006;12.436;2023-07-29T18:34:10;2.17;;;1.97;;
5195;SDS011;2617;51.006;12.436;2023-07-29T18:39:12;2.10;;;1.40;;
5195;SDS011;2617;51.006;12.436;2023-07-29T18:44:15;2.63;;;1.87;;
5195;SDS011;2617;51.006;12.436;2023-07-29T18:49:17;2.10;;;1.90;;
5195;SDS011;2617;51.006;12.436;2023-07-29T18:54:20;1.73;;;1.63;;
5195;SDS011;2617;51.006;12.436;2023-07-29T18:59:23;1.70;;;1.40;;
5195;SDS011;2617;51.006;12.436;2023-07-29T19:04:25;7.73;;;1.60;;
5195;SDS011;2617;51.006;12.436;2023-07-29T19:09:28;5.40;;;2.10;;
5195;SDS011;2617;51.006;12.436;2023-07-29T19:14:30;2.25;;;2.05;;
5195;SDS011;2617;51.006;12.436;2023-07-29T19:19:33;2.97;;;1.90;;
5195;SDS011;2617;51.006;12.436;2023-07-29T19:24:35;3.00;;;1.95;;
5195;SDS011;2617;51.006;12.436;2023-07-29T19:29:37;2.70;;;2.00;;
5195;SDS011;2617;51.006;12.436;2023-07-29T19:34:40;2.57;;;2.00;;
5195;SDS011;2617;51.006;12.436;2023-07-29T19:39:42;4.33;;;2.17;;
5195;SDS011;2617;51.006;12.436;2023-07-29T19:44:45;3.60;;;2.80;;
5195;SDS011;2617;51.006;12.436;2023-07-29T19:49:47;2.07;;;1.60;;
5195;SDS011;2617;51.006;12.436;2023-07-29T19:54:50;1.77;;;1.63;;
5195;SDS011;2617;51.006;12.436;2023-07-29T19:59:53;2.55;;;1.80;;
5195;SDS011;2617;51.006;12.436;2023-07-29T20:04:56;3.80;;;1.90;;
5195;SDS011;2617;51.006;12.436;2023-07-29T20:09:58;4.10;;;1.73;;
5195;SDS011;2617;51.006;12.436;2023-07-29T20:15:00;2.70;;;2.47;;
5195;SDS011;2617;51.006;12.436;2023-07-29T20:20:03;2.50;;;2.07;;
5195;SDS011;2617;51.006;12.436;2023-07-29T20:25:06;5.57;;;2.28;;
5195;SDS011;2617;51.006;12.436;2023-07-29T20:30:09;3.15;;;2.20;;
5195;SDS011;2617;51.006;12.436;2023-07-29T20:35:12;2.67;;;1.80;;
5195;SDS011;2617;51.006;12.436;2023-07-29T20:40:14;2.27;;;1.83;;
5195;SDS011;2617;51.006;12.436;2023-07-29T20:45:17;4.63;;;1.83;;
5195;SDS011;2617;51.006;12.436;2023-07-29T20:50:20;4.27;;;2.50;;
5195;SDS011;2617;51.006;12.436;2023-07-29T20:55:24;3.62;;;2.33;;
5195;SDS011;2617;51.006;12.436;2023-07-29T21:00:27;5.00;;;2.40;;
5195;SDS011;2617;51.006;12.436;2023-07-29T21:05:32;2.70;;;2.10;;
5195;SDS011;2617;51.006;12.436;2023-07-29T21:10:32;4.37;;;2.70;;
5195;SDS011;2617;51.006;12.436;2023-07-29T21:15:35;2.95;;;2.72;;
5195;SDS011;2617;51.006;12.436;2023-07-29T21:20:37;3.53;;;2.53;;
5195;SDS011;2617;51.006;12.436;2023-07-29T21:25:40;3.60;;;2.43;;
5195;SDS011;2617;51.006;12.436;2023-07-29T21:30:42;5.67;;;2.60;;
5195;SDS011;2617;51.006;12.436;2023-07-29T21:35:45;4.47;;;2.57;;
5195;SDS011;2617;51.006;12.436;2023-07-29T21:40:47;2.50;;;1.93;;
5195;SDS011;2617;51.006;12.436;2023-07-29T21:45:49;3.20;;;2.40;;
5195;SDS011;2617;51.006;12.436;2023-07-29T21:50:52;4.50;;;2.23;;
5195;SDS011;2617;51.006;12.436;2023-07-29T21:55:54;2.83;;;2.37;;
5195;SDS011;2617;51.006;12.436;2023-07-29T22:00:57;6.03;;;2.47;;
5195;SDS011;2617;51.006;12.436;2023-07-29T22:06:02;3.10;;;2.83;;
5195;SDS011;2617;51.006;12.436;2023-07-29T22:11:05;3.10;;;2.80;;
5195;SDS011;2617;51.006;12.436;2023-07-29T22:16:07;5.43;;;2.40;;
5195;SDS011;2617;51.006;12.436;2023-07-29T22:21:09;6.10;;;3.10;;
5195;SDS011;2617;51.006;12.436;2023-07-29T22:26:11;4.93;;;2.57;;
5195;SDS011;2617;51.006;12.436;2023-07-29T22:31:14;4.53;;;2.00;;
5195;SDS011;2617;51.006;12.436;2023-07-29T22:36:16;3.10;;;2.80;;
5195;SDS011;2617;51.006;12.436;2023-07-29T22:41:19;4.33;;;2.43;;
5195;SDS011;2617;51.006;12.436;2023-07-29T22:46:22;2.73;;;2.50;;
5195;SDS011;2617;51.006;12.436;2023-07-29T22:51:25;2.58;;;2.15;;
5195;SDS011;2617;51.006;12.436;2023-07-29T22:56:27;2.60;;;2.40;;
5195;SDS011;2617;51.006;12.436;2023-07-29T23:01:30;3.55;;;2.28;;
5195;SDS011;2617;51.006;12.436;2023-07-29T23:06:32;6.00;;;2.50;;
5195;SDS011;2617;51.006;12.436;2023-07-29T23:11:35;4.00;;;2.50;;
5195;SDS011;2617;51.006;12.436;2023-07-29T23:16:38;3.28;;;2.37;;
5195;SDS011;2617;51.006;12.436;2023-07-29T23:21:40;2.40;;;2.20;;
5195;SDS011;2617;51.006;12.436;2023-07-29T23:26:43;4.47;;;2.77;;
5195;SDS011;2617;51.006;12.436;2023-07-29T23:31:45;4.60;;;2.80;;
5195;SDS011;2617;51.006;12.436;2023-07-29T23:36:47;5.93;;;2.10;;
5195;SDS011;2617;51.006;12.436;2023-07-29T23:41:50;4.83;;;2.37;;
5195;SDS011;2617;51.006;12.436;2023-07-29T23:46:52;7.73;;;2.30;;
5195;SDS011;2617;51.006;12.436;2023-07-29T23:51:57;3.47;;;2.00;;
5195;SDS011;2617;51.006;12.436;2023-07-29T23:56:59;3.90;;;2.80;;
